Stadskanaal Airfield

EHST · Groningen, 荷兰

METAR的历史 EHST · Stadskanaal Airfield

下面你可以看到过去几天的METARs。 选择年份以浏览从2007年开始的旧METAR。

2022年12月7日

时间 代码 天气 温度 能见度 天花板 METAR/SPECI
03:55
M
4 °C 10 km+ 2.500 ft 280° 280° 8 kt METAR EHGG 070255Z AUTO 28008KT 250V320 9999 -SHRA FEW017 SCT021 BKN025 04/03 Q1015
03:25
V
3 °C 10 km+ 3.200 ft 260° 260° 4 kt METAR EHGG 070225Z AUTO 26004KT 9999 -RA SCT028 BKN032 BKN036 03/02 Q1015
02:55
M
4 °C 10 km+ 2.900 ft 280° 280° 5 kt METAR EHGG 070155Z AUTO 28005KT 240V320 9999 -UP FEW017 SCT022 BKN029 04/02 Q1015
02:25
V
4 °C 10 km+ 3.900 ft 290° 290° 6 kt METAR EHGG 070125Z AUTO 29006KT 260V320 9999 SCT033 BKN039 04/02 Q1015
01:55
V
3 °C 10 km+ - 260° 260° 6 kt METAR EHGG 070055Z AUTO 26006KT 230V290 9999 FEW037 03/02 Q1015
01:25
V
3 °C 10 km+ - 290° 290° 3 kt METAR EHGG 070025Z AUTO 29003KT 9999 NSC 03/02 Q1015
00:55
V
3 °C 10 km+ 3.000 ft 270° 270° 8 kt METAR EHGG 062355Z AUTO 27008KT 240V320 9999 -RA FEW021 SCT027 BKN030 03/02 Q1015
00:25
V
3 °C 10 km+ - 270° 270° 6 kt METAR EHGG 062325Z AUTO 27006KT 240V300 9999 NCD 03/02 Q1015

2022年12月6日

时间 代码 天气 温度 能见度 天花板 METAR/SPECI
23:55
V
3 °C 10 km+ - 280° 280° 6 kt METAR EHGG 062255Z AUTO 28006KT 250V310 9999 FEW032 SCT042 03/02 Q1015
23:25
V
2 °C 9 km - 250° 250° 6 kt METAR EHGG 062225Z AUTO 25006KT 9000 FEW033 02/02 Q1015
22:55
V
3 °C 8 km - 260° 260° 6 kt METAR EHGG 062155Z AUTO 26006KT 8000 FEW027 SCT040 03/02 Q1015
22:25
I
2 °C 4,1 km 3.600 ft 260° 260° 4 kt METAR EHGG 062125Z AUTO 26004KT 230V290 4100 FEW022 SCT028 BKN036 02/02 Q1015 BECMG 7000 NSW
21:55
L
2 °C 300 m - 240° 240° 3 kt METAR EHGG 062055Z AUTO 24003KT 0300 R23/0400N FG BKN000 02/01 Q1015 BECMG 9999 NSW BKN020
21:25
L
4 °C 2,8 km 200 ft 260° 260° 4 kt METAR EHGG 062025Z AUTO 26004KT 2800 BR BKN000 BKN002 BKN031 04/04 Q1015 BECMG 9999 NSW BKN020
20:55
L
5 °C 4,8 km 200 ft 260° 260° 4 kt METAR EHGG 061955Z AUTO 26004KT 4800 SCT001 BKN002 BKN006 05/05 Q1015 BECMG 9999 NSW BKN020
20:25
L
5 °C 7 km 200 ft 290° 290° 6 kt METAR EHGG 061925Z AUTO 29006KT 260V320 7000 OVC002 05/05 Q1016 NOSIG
19:55
L
5 °C 10 km+ 400 ft 270° 270° 6 kt METAR EHGG 061855Z AUTO 27006KT 230V310 9999 OVC004 05/05 Q1016 NOSIG
19:25
L
5 °C 10 km+ 300 ft 270° 270° 5 kt METAR EHGG 061825Z AUTO 27005KT 9999 OVC003 05/05 Q1016 TEMPO 6000 SCT007
18:55
I
5 °C 10 km+ 500 ft 250° 250° 4 kt METAR EHGG 061755Z AUTO 25004KT 220V280 9999 SCT004 BKN005 05/04 Q1016 TEMPO 6000 SCT007
18:25
L
5 °C 10 km+ 400 ft 240° 240° 4 kt METAR EHGG 061725Z AUTO 24004KT 9999 OVC004 05/04 Q1016 TEMPO 6000 SCT007
17:55
I
4 °C 10 km+ 600 ft 230° 230° 2 kt METAR EHGG 061655Z AUTO 23002KT 9999 BKN006 OVC007 04/04 Q1016 NOSIG
17:25
M
5 °C 10 km+ 2.800 ft 240° 240° 4 kt METAR EHGG 061625Z AUTO 24004KT 210V270 9999 OVC028 05/04 Q1016 NOSIG
16:55
V
5 °C 10 km+ 3.000 ft 240° 240° 5 kt METAR EHGG 061555Z AUTO 24005KT 9999 OVC030/// 05/04 Q1016 NOSIG
16:25
V
6 °C 10 km+ 3.500 ft 240° 240° 5 kt METAR EHGG 061525Z AUTO 24005KT 9999 OVC035/// 06/05 Q1016 NOSIG
15:55
V
6 °C 10 km+ 4.300 ft 250° 250° 6 kt METAR EHGG 061455Z AUTO 25006KT 9999 OVC043 06/04 Q1016 NOSIG
15:25
V
6 °C 10 km+ - 260° 260° 6 kt METAR EHGG 061425Z AUTO 26006KT 220V300 9999 FEW046 06/04 Q1017 NOSIG
14:55
V
6 °C 10 km+ - 240° 240° 7 kt METAR EHGG 061355Z AUTO 24007KT 210V270 9999 SCT033 06/04 Q1017 NOSIG
14:25
V
7 °C 10 km+ 3.100 ft 250° 250° 7 kt METAR EHGG 061325Z AUTO 25007KT 220V300 9999 OVC031 07/04 Q1017 NOSIG
13:55
V
6 °C 10 km+ 3.200 ft 270° 270° 7 kt METAR EHGG 061255Z AUTO 27007KT 230V300 9999 OVC032 06/04 Q1017 NOSIG
13:25
V
7 °C 10 km+ - 250° 250° 7 kt METAR EHGG 061225Z AUTO 25007KT 210V280 9999 SCT029 07/04 Q1017 NOSIG
12:55
V
6 °C 10 km+ 3.200 ft 260° 260° 6 kt METAR EHGG 061155Z AUTO 26006KT 220V310 9999 BKN032 06/04 Q1018 NOSIG
12:25
M
7 °C 10 km+ 2.800 ft 270° 270° 6 kt METAR EHGG 061125Z AUTO 27006KT 230V300 9999 FEW024 BKN028 OVC032 07/04 Q1018 NOSIG
11:55
V
6 °C 10 km+ 3.200 ft 270° 270° 4 kt METAR EHGG 061055Z AUTO 27004KT 240V300 9999 BKN032 06/04 Q1018 NOSIG
11:25
V
5 °C 10 km+ - 250° 250° 5 kt METAR EHGG 061025Z AUTO 25005KT 220V280 9999 FEW035 05/03 Q1018 NOSIG
10:55
V
4 °C 10 km+ - 240° 240° 5 kt METAR EHGG 060955Z AUTO 24005KT 220V340 9999 NCD 04/03 Q1018 NOSIG
10:25
V
3 °C 10 km+ 3.600 ft 250° 250° 3 kt METAR EHGG 060925Z AUTO 25003KT 9999 SCT031 OVC036 03/02 Q1018 NOSIG
09:55
V
3 °C 10 km+ 3.700 ft 260° 260° 4 kt METAR EHGG 060855Z AUTO 26004KT 230V290 9999 FEW032 BKN037 OVC041 03/02 Q1018 NOSIG
09:25
I
0 °C 1,9 km 3.500 ft 260° 260° 3 kt METAR EHGG 060825Z AUTO 26003KT 230V290 1900 BR BKN035 M00/M00 Q1019 BECMG 9999 NSW
08:55
L
-1 °C 300 m - 240° 240° 3 kt METAR EHGG 060755Z AUTO 24003KT 0300 R23/0450D FZFG FEW046 M01/M01 Q1018 BECMG 7000 MIFG
08:25
L
0 °C 600 m - 240° 240° 3 kt METAR EHGG 060725Z AUTO 24003KT 0600 R23/0650D FZFG NCD 00/M00 Q1018 BECMG 7000 MIFG
07:55
V
2 °C 10 km+ 3.900 ft Var Var 1 kt METAR EHGG 060655Z AUTO VRB01KT 9999 BKN039 BKN044 02/01 Q1019 NOSIG
07:25
M
2 °C 7 km - 290° 290° 3 kt METAR EHGG 060625Z AUTO 29003KT 7000 SCT032 02/02 Q1018 TEMPO 7000 -DZRA
06:55
V
3 °C 10 km+ 3.300 ft 290° 290° 5 kt METAR EHGG 060555Z AUTO 29005KT 9999 OVC033 03/02 Q1018 NOSIG
06:25
V
2 °C 10 km+ - 310° 310° 4 kt METAR EHGG 060525Z AUTO 31004KT 280V340 9999 NCD 02/02 Q1018
05:55
V
3 °C 10 km+ 4.000 ft 300° 300° 3 kt METAR EHGG 060455Z AUTO 30003KT 9999 BKN040 OVC046 03/02 Q1019
05:25
V
3 °C 10 km+ - 320° 320° 3 kt METAR EHGG 060425Z AUTO 32003KT 9999 FEW021 03/03 Q1019
04:55
M
4 °C 10 km+ 2.300 ft 320° 320° 3 kt METAR EHGG 060355Z AUTO 32003KT 9999 FEW018 BKN023 BKN027 04/03 Q1019
04:25
V
4 °C 10 km+ 3.200 ft 320° 320° 3 kt METAR EHGG 060325Z AUTO 32003KT 280V350 9999 FEW015 SCT028 BKN032 04/03 Q1019
03:55
V
4 °C 10 km+ 4.100 ft 330° 330° 3 kt METAR EHGG 060255Z AUTO 33003KT 290V360 9999 OVC041 04/04 Q1019
03:25
M
5 °C 10 km+ 1.900 ft 010° 010° 5 kt METAR EHGG 060225Z AUTO 01005KT 330V040 9999 SCT015 BKN019 BKN024 05/04 Q1019
02:55
M
5 °C 10 km+ 2.000 ft 360° 360° 6 kt METAR EHGG 060155Z AUTO 36006KT 320V040 9999 SCT017 OVC020 05/04 Q1019
02:25
M
5 °C 10 km+ 1.600 ft 360° 360° 5 kt METAR EHGG 060125Z AUTO 36005KT 320V040 9999 FEW006 BKN016 OVC021 05/04 Q1019 REDZ
01:55
M
5 °C 5 km 1.600 ft 340° 340° 7 kt METAR EHGG 060055Z AUTO 34007KT 310V030 5000 +DZRA FEW012 BKN016 OVC020 05/04 Q1019
01:25
M
5 °C 10 km+ 1.800 ft 340° 340° 4 kt METAR EHGG 060025Z AUTO 34004KT 9999 BKN018/// OVC021/// 05/04 Q1020
00:25
M
5 °C 10 km+ 1.700 ft 360° 360° 3 kt METAR EHGG 052325Z AUTO 36003KT 330V040 9999 BKN017 BKN020 OVC026 05/05 Q1020

2022年12月5日

时间 代码 天气 温度 能见度 天花板 METAR/SPECI
23:55
M
5 °C 6 km 1.500 ft 350° 350° 3 kt METAR EHGG 052255Z AUTO 35003KT 310V020 6000 FEW004 OVC015 05/05 Q1020
23:25
I
5 °C 10 km+ 700 ft 010° 010° 5 kt METAR EHGG 052225Z AUTO 01005KT 340V050 9999 FEW006 BKN007 OVC008 05/05 Q1020
22:55
M
5 °C 8 km 1.100 ft 010° 010° 5 kt METAR EHGG 052155Z AUTO 01005KT 330V050 8000 -DZ FEW008 BKN011 OVC013 05/05 Q1020 REDZ
22:25
I
5 °C 9 km 500 ft 010° 010° 4 kt METAR EHGG 052125Z AUTO 01004KT 330V040 9000 DZ FEW003 BKN005 BKN006 05/05 Q1020 BECMG 9999 BKN012
21:55
I
5 °C 10 km+ 700 ft 020° 020° 7 kt METAR EHGG 052055Z AUTO 02007KT 340V050 9999 DZ FEW005 SCT006 BKN007 05/05 Q1020 BECMG 9999 BKN012
21:25
I
5 °C 9 km 600 ft 010° 010° 6 kt METAR EHGG 052025Z AUTO 01006KT 330V040 9000 DZ FEW004 SCT005 BKN006 05/05 Q1020 BECMG BKN006
20:55
I
5 °C 8 km 500 ft 020° 020° 6 kt METAR EHGG 051955Z AUTO 02006KT 320V050 8000 DZ SCT003 BKN005 OVC006 05/05 Q1020 BECMG BKN006
20:25
I
5 °C 8 km 500 ft 020° 020° 8 kt METAR EHGG 051925Z AUTO 02008KT 340V060 8000 DZ SCT003 BKN005 BKN006 05/05 Q1020 BECMG BKN006
19:55
L
5 °C 4,5 km 400 ft 020° 020° 6 kt METAR EHGG 051855Z AUTO 02006KT 340V050 4500 DZ SCT003 BKN004 OVC005 05/05 Q1020 BECMG BKN006
19:25
I
5 °C 5 km 500 ft 020° 020° 7 kt METAR EHGG 051825Z AUTO 02007KT 350V070 5000 DZ SCT003 BKN005 OVC007 05/05 Q1020 BECMG BKN006
18:55
L
5 °C 5 km 400 ft 020° 020° 6 kt METAR EHGG 051755Z AUTO 02006KT 340V060 5000 DZ SCT003 BKN004 BKN006 05/05 Q1019 BECMG BKN006
18:25
I
5 °C 4,5 km 500 ft 020° 020° 7 kt METAR EHGG 051725Z AUTO 02007KT 350V050 4500 BR SCT004 BKN005 OVC007 05/05 Q1019 BECMG BKN006
17:55
L
5 °C 4,1 km 300 ft 020° 020° 6 kt METAR EHGG 051655Z AUTO 02006KT 340V050 4100 DZ BKN003 OVC005 05/05 Q1019 BECMG BKN006
17:25
I
5 °C 3,7 km 500 ft 020° 020° 8 kt METAR EHGG 051625Z AUTO 02008KT 340V050 3700 DZ SCT004 BKN005 OVC006 05/05 Q1019 TEMPO BKN016
16:55
I
5 °C 6 km 500 ft 020° 020° 8 kt METAR EHGG 051555Z AUTO 02008KT 340V050 6000 DZ SCT004 BKN005 BKN007 05/05 Q1019 TEMPO BKN016
16:25
I
5 °C 5 km 500 ft 020° 020° 7 kt METAR EHGG 051525Z AUTO 02007KT 350V060 5000 DZ SCT004 BKN005 OVC006 05/05 Q1019 TEMPO BKN016
15:55
I
5 °C 5 km 500 ft 020° 020° 7 kt METAR EHGG 051455Z AUTO 02007KT 340V050 5000 SCT004 BKN005 OVC006 05/05 Q1019 TEMPO BKN016
15:25
I
5 °C 9 km 700 ft 030° 030° 8 kt METAR EHGG 051425Z AUTO 03008KT 360V060 9000 FEW005 BKN007 BKN008 05/05 Q1019 TEMPO BKN016
14:55
I
5 °C 7 km 500 ft 030° 030° 7 kt METAR EHGG 051355Z AUTO 03007KT 350V060 7000 FEW004 BKN005 BKN007 05/05 Q1019 TEMPO BKN016
14:25
I
5 °C 6 km 700 ft 030° 030° 8 kt METAR EHGG 051325Z AUTO 03008KT 010V070 6000 BR FEW004 SCT006 BKN007 05/05 Q1019 NOSIG
13:55
I
5 °C 6 km 500 ft 030° 030° 8 kt METAR EHGG 051255Z AUTO 03008KT 360V060 6000 SCT004 BKN005 OVC007 05/05 Q1019 REDZ NOSIG
13:25
I
5 °C 6 km 500 ft 040° 040° 9 kt METAR EHGG 051225Z AUTO 04009KT 010V070 6000 FEW004 BKN005 OVC007 05/05 Q1019 TEMPO BKN020
12:55
I
5 °C 8 km 500 ft 040° 040° 9 kt METAR EHGG 051155Z AUTO 04009KT 360V070 8000 FEW004 BKN005 BKN007 05/05 Q1019 TEMPO BKN020
12:25
I
5 °C 4,9 km 600 ft 030° 030° 10 kt METAR EHGG 051125Z AUTO 03010KT 360V060 4900 FEW005 BKN006 BKN007 05/04 Q1020 BECMG 9999 TEMPO BKN020
11:55
I
5 °C 9 km 800 ft 030° 030° 9 kt METAR EHGG 051055Z AUTO 03009KT 360V070 9000 FEW005 SCT007 BKN008 05/05 Q1020 BECMG 9999 TEMPO BKN020
11:25
I
5 °C 5 km 600 ft 040° 040° 9 kt METAR EHGG 051025Z AUTO 04009KT 010V070 5000 BR FEW005 BKN006 BKN008 05/04 Q1020 TEMPO 4000 DZ
10:55
I
5 °C 10 km+ 700 ft 040° 040° 9 kt METAR EHGG 050955Z AUTO 04009KT 9999 SCT006 OVC007 05/04 Q1020 TEMPO 4000 DZ
10:25
I
5 °C 10 km+ 600 ft 040° 040° 9 kt METAR EHGG 050925Z AUTO 04009KT 360V070 9999 BKN006 OVC007 05/04 Q1020 TEMPO 4000 DZ
09:55
I
5 °C 10 km+ 700 ft 040° 040° 11 kt METAR EHGG 050855Z AUTO 04011KT 360V070 9999 -DZ FEW006 BKN007 OVC008 05/04 Q1020 TEMPO 4000 DZ
09:25
I
5 °C 9 km 500 ft 040° 040° 11 kt METAR EHGG 050825Z AUTO 04011KT 9000 BKN005 OVC006 05/04 Q1019 TEMPO 4000 DZ
08:55
I
5 °C 8 km 500 ft 040° 040° 12 kt METAR EHGG 050755Z AUTO 04012KT 360V080 8000 BKN005 OVC006 05/04 Q1019 TEMPO 4000 DZ
08:25
L
5 °C 8 km 400 ft 040° 040° 12 kt METAR EHGG 050725Z AUTO 04012KT 360V070 8000 BKN004 OVC006 05/04 Q1019 TEMPO 4000 DZ BKN004
07:55
I
5 °C 9 km 600 ft 040° 040° 10 kt METAR EHGG 050655Z AUTO 04010KT 360V070 9000 FEW004 BKN006 OVC007 05/05 Q1019 TEMPO 4000 DZ BKN004
07:25
I
5 °C 9 km 600 ft 040° 040° 11 kt METAR EHGG 050625Z AUTO 04011KT 9000 -DZ FEW004 SCT005 BKN006 05/04 Q1019 TEMPO 4000 DZ BKN004
06:55
I
5 °C 9 km 600 ft 040° 040° 9 kt METAR EHGG 050555Z AUTO 04009KT 350V070 9000 FEW004 BKN006 BKN007 05/04 Q1019 TEMPO 4000 DZ BKN004
06:25
I
5 °C 7 km 700 ft 040° 040° 9 kt METAR EHGG 050525Z AUTO 04009KT 010V070 7000 -DZ FEW004/// SCT005/// BKN007/// 05/05 Q1019 REDZ TEMPO 4000 DZ BKN004
05:55
L
5 °C 5 km 400 ft 040° 040° 9 kt METAR EHGG 050455Z AUTO 04009KT 010V070 5000 DZ BKN004 BKN005 OVC007 05/04 Q1019
05:25
I
5 °C 7 km 600 ft 040° 040° 10 kt METAR EHGG 050425Z AUTO 04010KT 010V080 7000 SCT005 BKN006 BKN008 05/04 Q1019
04:55
M
5 °C 8 km 1.200 ft 040° 040° 10 kt METAR EHGG 050355Z AUTO 04010KT 360V070 8000 FEW005 SCT008 BKN012 05/04 Q1019
04:25
I
5 °C 10 km+ 900 ft 030° 030° 9 kt METAR EHGG 050325Z AUTO 03009KT 350V060 9999 SCT007 BKN009 OVC010 05/04 Q1019
03:55
M
5 °C 9 km 1.000 ft 040° 040° 8 kt METAR EHGG 050255Z AUTO 04008KT 350V070 9000 -RADZ FEW007 SCT009 OVC010 05/04 Q1019
03:25
M
5 °C 10 km+ 1.100 ft 040° 040° 7 kt METAR EHGG 050225Z AUTO 04007KT 360V080 9999 FEW009 BKN011 BKN014 05/04 Q1019
02:55
I
5 °C 9 km 900 ft 040° 040° 8 kt METAR EHGG 050155Z AUTO 04008KT 010V070 9000 FEW008 BKN009 OVC010 05/04 Q1019
02:25
I
5 °C 10 km+ 900 ft 030° 030° 7 kt METAR EHGG 050125Z AUTO 03007KT 360V060 9999 OVC009 05/03 Q1019
01:55
M
5 °C 10 km+ 1.000 ft 060° 060° 10 kt METAR EHGG 050055Z AUTO 06010KT 9999 BKN010 OVC013 05/03 Q1019
01:25
M
5 °C 10 km+ 2.800 ft 040° 040° 8 kt METAR EHGG 050025Z AUTO 04008KT 010V080 9999 SCT013/// OVC028/// 05/02 Q1019
00:55
M
5 °C 10 km+ 2.100 ft 050° 050° 9 kt METAR EHGG 042355Z AUTO 05009KT 010V090 9999 SCT017 OVC021 05/02 Q1019
00:25
M
4 °C 10 km+ 2.400 ft 050° 050° 10 kt METAR EHGG 042325Z AUTO 05010KT 9999 OVC024 04/02 Q1019

2022年12月4日

时间 代码 天气 温度 能见度 天花板 METAR/SPECI
23:55
M
4 °C 10 km+ 2.100 ft 050° 050° 10 kt METAR EHGG 042255Z AUTO 05010KT 9999 OVC021 04/02 Q1019
23:25
M
4 °C 9 km 1.200 ft 070° 070° 10 kt METAR EHGG 042225Z AUTO 07010KT 9000 FEW010 BKN012 OVC015 04/02 Q1020
22:55
M
4 °C 9 km 1.800 ft 050° 050° 10 kt METAR EHGG 042155Z AUTO 05010KT 020V080 9000 FEW015 OVC018 04/02 Q1020 BECMG BKN012
22:25
M
4 °C 9 km 1.500 ft 050° 050° 10 kt METAR EHGG 042125Z AUTO 05010KT 9000 BKN015/// OVC024/// 04/02 Q1020 BECMG BKN012
21:55
M
4 °C 9 km 1.100 ft 060° 060° 10 kt METAR EHGG 042055Z AUTO 06010KT 9000 BKN011/// BKN014/// OVC017/// 04/02 Q1020 BECMG BKN012
21:25
M
4 °C 9 km 1.400 ft 060° 060° 10 kt METAR EHGG 042025Z AUTO 06010KT 030V090 9000 BKN014 OVC017 04/02 Q1020 BECMG BKN012
20:55
M
4 °C 10 km+ 1.500 ft 070° 070° 11 kt METAR EHGG 041955Z AUTO 07011KT 020V090 9999 FEW013 OVC015 04/01 Q1020 NOSIG
20:25
M
4 °C 10 km+ 1.300 ft 070° 070° 11 kt METAR EHGG 041925Z AUTO 07011KT 030V090 9999 BKN013 OVC016 04/01 Q1020 NOSIG
19:55
M
4 °C 10 km+ 1.300 ft 070° 070° 11 kt METAR EHGG 041855Z AUTO 07011KT 040V110 9999 OVC013 04/01 Q1020 NOSIG
19:25
M
3 °C 10 km+ 1.300 ft 060° 060° 10 kt METAR EHGG 041825Z AUTO 06010KT 030V100 9999 OVC013/// 03/01 Q1020 NOSIG
18:55
M
3 °C 9 km 1.300 ft 060° 060° 11 kt METAR EHGG 041755Z AUTO 06011KT 030V090 9000 BKN013 OVC015 03/01 Q1020 NOSIG
18:25
M
3 °C 9 km 1.300 ft 060° 060° 12 kt METAR EHGG 041725Z AUTO 06012KT 030V090 9000 BKN013 OVC015 03/01 Q1020 NOSIG
17:55
M
3 °C 9 km 1.500 ft 060° 060° 11 kt METAR EHGG 041655Z AUTO 06011KT 030V090 9000 FEW013 OVC015 03/01 Q1020 NOSIG
17:25
M
3 °C 8 km 1.400 ft 060° 060° 11 kt METAR EHGG 041625Z AUTO 06011KT 030V090 8000 FEW009 SCT012 BKN014 03/01 Q1020 NOSIG
16:55
M
2 °C 9 km 1.700 ft 060° 060° 12 kt METAR EHGG 041555Z AUTO 06012KT 030V090 9000 FEW012 OVC017 02/00 Q1019 NOSIG
16:25
M
2 °C 10 km+ 1.700 ft 060° 060° 10 kt METAR EHGG 041525Z AUTO 06010KT 030V090 9999 OVC017 02/M00 Q1019 NOSIG
15:55
M
2 °C 9 km 1.400 ft 080° 080° 12 kt METAR EHGG 041455Z AUTO 08012KT 050V110 9000 SCT011 BKN014 OVC016 02/M00 Q1019 NOSIG
15:25
M
2 °C 9 km 1.100 ft 080° 080° 13 kt METAR EHGG 041425Z AUTO 08013KT 050V120 9000 BKN011 OVC014 02/M00 Q1019 NOSIG
14:55
M
2 °C 10 km+ 1.400 ft 060° 060° 12 kt METAR EHGG 041355Z AUTO 06012KT 9999 SCT012 BKN014 OVC017 02/M00 Q1019 TEMPO BKN014
14:25
M
2 °C 10 km+ 1.500 ft 060° 060° 10 kt METAR EHGG 041325Z AUTO 06010KT 020V090 9999 OVC015 02/M00 Q1019 TEMPO BKN014
13:55
M
2 °C 10 km+ 1.600 ft 070° 070° 11 kt METAR EHGG 041255Z AUTO 07011KT 9999 BKN016 OVC019 02/M01 Q1020 TEMPO BKN014
13:25
M
2 °C 10 km+ 1.800 ft 080° 080° 10 kt METAR EHGG 041225Z AUTO 08010KT 050V120 9999 OVC018 02/M01 Q1019 TEMPO BKN014
12:55
M
2 °C 10 km+ 1.700 ft 070° 070° 14 kt METAR EHGG 041155Z AUTO 07014KT 9999 FEW014 OVC017 02/M01 Q1020 BECMG BKN014
12:25
M
2 °C 10 km+ 2.000 ft 070° 070° 11 kt METAR EHGG 041125Z AUTO 07011KT 040V100 9999 OVC020 02/M01 Q1020 NOSIG
11:55
M
2 °C 10 km+ 2.000 ft 060° 060° 11 kt METAR EHGG 041055Z AUTO 06011KT 9999 FEW016 OVC020 02/M01 Q1020 TEMPO 7000 BKN014
11:25
M
2 °C 9 km 2.000 ft 060° 060° 11 kt METAR EHGG 041025Z AUTO 06011KT 030V090 9000 OVC020 02/M01 Q1020 TEMPO 7000 BKN014
10:55
M
1 °C 8 km 1.900 ft 060° 060° 10 kt METAR EHGG 040955Z AUTO 06010KT 8000 OVC019 01/M01 Q1020 TEMPO 8000

我们和第三方通过cookies跟踪您在我们网站上的互联网行为。如果你继续,我们认为你同意我们的饼干政策